Northfield, Ohio
Current Conditions -  °F | °C
As of 5:53 AM on Sunday 23 Nov 2014 (Local Time) from KBKL Reporting Station
Light Rain Light Rain  
Wind Chill: 43°   Ceiling: 3700
Heat Index: 48°   Visibility: 10mi
Dew Point: 40°   Wind: 13mph
Humidity: 74%   Direction: 170°S
Pressure: 30.03"   Gusts: NA
Location:  41.35°N, 81.53°W
Report Text: KBKL 231053Z AUTO 17011KT 10SM -RA OVC037 09/04 A3003 RMK AO2 SLP170 P0001 T00890044
Loading
Personal Weather Stations






























Interactive Weather Map New forecast layout! Learn more

10-Day Weather Forecast

Advertisements
Track Severe Weather on mobile